sensor_id;sensor_type;location;lat;lon;timestamp;temperature;humidity
35497;DHT22;21609;49.298;6.844;2023-07-31T00:01:05;22.60;63.00
35497;DHT22;21609;49.298;6.844;2023-07-31T00:03:31;22.60;62.90
35497;DHT22;21609;49.298;6.844;2023-07-31T00:05:56;22.60;62.90
35497;DHT22;21609;49.298;6.844;2023-07-31T00:08:22;22.60;62.90
35497;DHT22;21609;49.298;6.844;2023-07-31T00:10:50;22.60;62.90
35497;DHT22;21609;49.298;6.844;2023-07-31T00:13:16;22.60;62.80
35497;DHT22;21609;49.298;6.844;2023-07-31T00:15:41;22.60;62.90
35497;DHT22;21609;49.298;6.844;2023-07-31T00:18:07;22.60;62.70
35497;DHT22;21609;49.298;6.844;2023-07-31T00:20:32;22.60;62.60
35497;DHT22;21609;49.298;6.844;2023-07-31T00:22:57;22.60;62.90
35497;DHT22;21609;49.298;6.844;2023-07-31T00:25:23;22.60;63.20
35497;DHT22;21609;49.298;6.844;2023-07-31T00:27:48;22.50;62.70
35497;DHT22;21609;49.298;6.844;2023-07-31T00:30:14;22.50;62.60
35497;DHT22;21609;49.298;6.844;2023-07-31T00:32:39;22.50;62.70
35497;DHT22;21609;49.298;6.844;2023-07-31T00:35:05;22.60;62.60
35497;DHT22;21609;49.298;6.844;2023-07-31T00:37:30;22.60;62.60
35497;DHT22;21609;49.298;6.844;2023-07-31T00:39:56;22.60;62.70
35497;DHT22;21609;49.298;6.844;2023-07-31T00:42:21;22.50;62.70
35497;DHT22;21609;49.298;6.844;2023-07-31T00:44:47;22.50;62.80
35497;DHT22;21609;49.298;6.844;2023-07-31T00:47:12;22.50;62.90
35497;DHT22;21609;49.298;6.844;2023-07-31T00:49:37;22.50;62.70
35497;DHT22;21609;49.298;6.844;2023-07-31T00:52:03;22.50;62.70
35497;DHT22;21609;49.298;6.844;2023-07-31T00:54:30;22.50;63.10
35497;DHT22;21609;49.298;6.844;2023-07-31T00:56:56;22.50;62.80
35497;DHT22;21609;49.298;6.844;2023-07-31T00:59:21;22.50;62.70
35497;DHT22;21609;49.298;6.844;2023-07-31T01:01:47;22.50;62.50
35497;DHT22;21609;49.298;6.844;2023-07-31T01:04:12;22.50;62.90
35497;DHT22;21609;49.298;6.844;2023-07-31T01:06:48;22.50;62.60
35497;DHT22;21609;49.298;6.844;2023-07-31T01:11:52;22.50;63.50
35497;DHT22;21609;49.298;6.844;2023-07-31T01:14:18;22.50;63.20
35497;DHT22;21609;49.298;6.844;2023-07-31T01:16:43;22.50;63.10
35497;DHT22;21609;49.298;6.844;2023-07-31T01:19:09;22.50;63.10
35497;DHT22;21609;49.298;6.844;2023-07-31T01:24:20;22.50;62.80
35497;DHT22;21609;49.298;6.844;2023-07-31T01:27:02;22.50;62.80
35497;DHT22;21609;49.298;6.844;2023-07-31T01:29:35;22.50;62.80
35497;DHT22;21609;49.298;6.844;2023-07-31T01:32:03;22.40;62.70
35497;DHT22;21609;49.298;6.844;2023-07-31T01:34:30;22.40;62.90
35497;DHT22;21609;49.298;6.844;2023-07-31T01:36:56;22.40;62.90
35497;DHT22;21609;49.298;6.844;2023-07-31T01:39:23;22.40;62.80
35497;DHT22;21609;49.298;6.844;2023-07-31T01:41:48;22.40;62.90
35497;DHT22;21609;49.298;6.844;2023-07-31T01:44:14;22.40;62.70
35497;DHT22;21609;49.298;6.844;2023-07-31T01:46:39;22.40;62.90
35497;DHT22;21609;49.298;6.844;2023-07-31T01:49:05;22.40;63.10
35497;DHT22;21609;49.298;6.844;2023-07-31T01:51:31;22.40;63.10
35497;DHT22;21609;49.298;6.844;2023-07-31T01:53:59;22.40;63.20
35497;DHT22;21609;49.298;6.844;2023-07-31T01:56:25;22.40;62.70
35497;DHT22;21609;49.298;6.844;2023-07-31T01:58:50;22.40;63.50
35497;DHT22;21609;49.298;6.844;2023-07-31T02:01:16;22.40;62.80
35497;DHT22;21609;49.298;6.844;2023-07-31T02:03:41;22.40;63.10
35497;DHT22;21609;49.298;6.844;2023-07-31T02:06:07;22.40;63.40
35497;DHT22;21609;49.298;6.844;2023-07-31T02:08:32;22.40;63.30
35497;DHT22;21609;49.298;6.844;2023-07-31T02:10:58;22.40;63.10
35497;DHT22;21609;49.298;6.844;2023-07-31T02:13:23;22.30;62.80
35497;DHT22;21609;49.298;6.844;2023-07-31T02:15:49;22.40;62.90
35497;DHT22;21609;49.298;6.844;2023-07-31T02:18:15;22.40;63.10
35497;DHT22;21609;49.298;6.844;2023-07-31T02:20:41;22.40;63.10
35497;DHT22;21609;49.298;6.844;2023-07-31T02:23:06;22.30;63.00
35497;DHT22;21609;49.298;6.844;2023-07-31T02:25:32;22.30;63.00
35497;DHT22;21609;49.298;6.844;2023-07-31T02:27:57;22.40;62.90
35497;DHT22;21609;49.298;6.844;2023-07-31T02:30:23;22.40;62.90
35497;DHT22;21609;49.298;6.844;2023-07-31T02:32:48;22.30;62.90
35497;DHT22;21609;49.298;6.844;2023-07-31T02:35:14;22.30;63.00
35497;DHT22;21609;49.298;6.844;2023-07-31T02:37:41;22.30;63.00
35497;DHT22;21609;49.298;6.844;2023-07-31T02:40:06;22.30;63.00
35497;DHT22;21609;49.298;6.844;2023-07-31T02:42:32;22.30;62.90
35497;DHT22;21609;49.298;6.844;2023-07-31T02:44:57;22.30;63.00
35497;DHT22;21609;49.298;6.844;2023-07-31T02:47:23;22.30;63.00
35497;DHT22;21609;49.298;6.844;2023-07-31T02:49:48;22.30;63.10
35497;DHT22;21609;49.298;6.844;2023-07-31T02:52:14;22.30;62.90
35497;DHT22;21609;49.298;6.844;2023-07-31T02:54:39;22.30;62.80
35497;DHT22;21609;49.298;6.844;2023-07-31T02:57:05;22.30;63.00
35497;DHT22;21609;49.298;6.844;2023-07-31T02:59:30;22.30;62.80
35497;DHT22;21609;49.298;6.844;2023-07-31T03:01:56;22.30;63.00
35497;DHT22;21609;49.298;6.844;2023-07-31T03:04:21;22.30;63.20
35497;DHT22;21609;49.298;6.844;2023-07-31T03:06:47;22.30;63.20
35497;DHT22;21609;49.298;6.844;2023-07-31T03:09:12;22.30;63.10
35497;DHT22;21609;49.298;6.844;2023-07-31T03:11:37;22.30;63.10
35497;DHT22;21609;49.298;6.844;2023-07-31T03:14:03;22.30;63.00
35497;DHT22;21609;49.298;6.844;2023-07-31T03:16:28;22.30;63.20
35497;DHT22;21609;49.298;6.844;2023-07-31T03:18:54;22.30;63.00
35497;DHT22;21609;49.298;6.844;2023-07-31T03:21:20;22.20;63.00
35497;DHT22;21609;49.298;6.844;2023-07-31T03:23:45;22.30;63.10
35497;DHT22;21609;49.298;6.844;2023-07-31T03:26:10;22.20;63.20
35497;DHT22;21609;49.298;6.844;2023-07-31T03:28:36;22.20;63.10
35497;DHT22;21609;49.298;6.844;2023-07-31T03:31:01;22.20;63.20
35497;DHT22;21609;49.298;6.844;2023-07-31T03:33:27;22.20;63.00
35497;DHT22;21609;49.298;6.844;2023-07-31T03:35:53;22.20;63.00
35497;DHT22;21609;49.298;6.844;2023-07-31T03:38:18;22.20;63.10
35497;DHT22;21609;49.298;6.844;2023-07-31T03:40:44;22.20;63.00
35497;DHT22;21609;49.298;6.844;2023-07-31T03:43:10;22.20;63.10
35497;DHT22;21609;49.298;6.844;2023-07-31T03:45:35;22.20;63.00
35497;DHT22;21609;49.298;6.844;2023-07-31T03:48:01;22.20;63.10
35497;DHT22;21609;49.298;6.844;2023-07-31T03:50:26;22.20;63.00
35497;DHT22;21609;49.298;6.844;2023-07-31T03:52:52;22.20;63.70
35497;DHT22;21609;49.298;6.844;2023-07-31T03:55:17;22.20;63.20
35497;DHT22;21609;49.298;6.844;2023-07-31T03:57:43;22.20;63.30
35497;DHT22;21609;49.298;6.844;2023-07-31T04:00:09;22.20;63.00
35497;DHT22;21609;49.298;6.844;2023-07-31T04:02:34;22.10;63.10
35497;DHT22;21609;49.298;6.844;2023-07-31T04:05:00;22.10;63.10
35497;DHT22;21609;49.298;6.844;2023-07-31T04:07:25;22.10;63.10
35497;DHT22;21609;49.298;6.844;2023-07-31T04:09:51;22.20;63.30
35497;DHT22;21609;49.298;6.844;2023-07-31T04:12:16;22.10;63.30
35497;DHT22;21609;49.298;6.844;2023-07-31T04:14:42;22.10;63.20
35497;DHT22;21609;49.298;6.844;2023-07-31T04:17:07;22.20;63.20
35497;DHT22;21609;49.298;6.844;2023-07-31T04:19:32;22.10;63.50
35497;DHT22;21609;49.298;6.844;2023-07-31T04:21:58;22.10;63.30
35497;DHT22;21609;49.298;6.844;2023-07-31T04:24:23;22.10;63.10
35497;DHT22;21609;49.298;6.844;2023-07-31T04:26:52;22.10;61.50
35497;DHT22;21609;49.298;6.844;2023-07-31T04:29:18;22.10;63.50
35497;DHT22;21609;49.298;6.844;2023-07-31T04:31:43;22.10;63.30
35497;DHT22;21609;49.298;6.844;2023-07-31T04:34:09;22.10;63.30
35497;DHT22;21609;49.298;6.844;2023-07-31T04:36:34;22.10;63.70
35497;DHT22;21609;49.298;6.844;2023-07-31T04:39:00;22.10;63.70
35497;DHT22;21609;49.298;6.844;2023-07-31T04:41:25;22.10;64.00
35497;DHT22;21609;49.298;6.844;2023-07-31T04:43:51;22.10;63.70
35497;DHT22;21609;49.298;6.844;2023-07-31T04:46:16;22.10;64.00
35497;DHT22;21609;49.298;6.844;2023-07-31T04:48:42;22.10;63.90
35497;DHT22;21609;49.298;6.844;2023-07-31T04:51:07;22.10;64.20
35497;DHT22;21609;49.298;6.844;2023-07-31T04:53:33;22.10;64.20
35497;DHT22;21609;49.298;6.844;2023-07-31T04:55:58;22.10;63.90
35497;DHT22;21609;49.298;6.844;2023-07-31T04:58:23;22.10;63.80
35497;DHT22;21609;49.298;6.844;2023-07-31T05:00:49;22.00;63.80
35497;DHT22;21609;49.298;6.844;2023-07-31T05:03:14;22.00;63.80
35497;DHT22;21609;49.298;6.844;2023-07-31T05:05:40;22.00;63.80
35497;DHT22;21609;49.298;6.844;2023-07-31T05:08:05;22.00;63.90
35497;DHT22;21609;49.298;6.844;2023-07-31T05:10:31;22.00;61.50
35497;DHT22;21609;49.298;6.844;2023-07-31T05:12:56;22.00;64.20
35497;DHT22;21609;49.298;6.844;2023-07-31T05:15:22;22.00;63.60
35497;DHT22;21609;49.298;6.844;2023-07-31T05:17:47;22.00;63.80
35497;DHT22;21609;49.298;6.844;2023-07-31T05:20:13;22.00;63.90
35497;DHT22;21609;49.298;6.844;2023-07-31T05:22:40;22.00;64.30
35497;DHT22;21609;49.298;6.844;2023-07-31T05:25:05;22.00;63.90
35497;DHT22;21609;49.298;6.844;2023-07-31T05:27:31;22.00;63.90
35497;DHT22;21609;49.298;6.844;2023-07-31T05:29:56;22.00;63.70
35497;DHT22;21609;49.298;6.844;2023-07-31T05:32:22;22.00;63.90
35497;DHT22;21609;49.298;6.844;2023-07-31T05:34:50;22.00;63.90
35497;DHT22;21609;49.298;6.844;2023-07-31T05:37:15;22.00;63.90
35497;DHT22;21609;49.298;6.844;2023-07-31T05:39:41;22.00;64.00
35497;DHT22;21609;49.298;6.844;2023-07-31T05:42:06;22.00;63.90
35497;DHT22;21609;49.298;6.844;2023-07-31T05:44:32;22.00;64.20
35497;DHT22;21609;49.298;6.844;2023-07-31T05:46:57;22.00;64.20
35497;DHT22;21609;49.298;6.844;2023-07-31T05:49:23;22.00;64.20
35497;DHT22;21609;49.298;6.844;2023-07-31T05:51:48;22.00;64.10
35497;DHT22;21609;49.298;6.844;2023-07-31T05:54:13;22.00;63.80
35497;DHT22;21609;49.298;6.844;2023-07-31T05:56:39;21.90;63.90
35497;DHT22;21609;49.298;6.844;2023-07-31T05:59:04;21.90;63.70
35497;DHT22;21609;49.298;6.844;2023-07-31T06:01:30;22.00;63.90
35497;DHT22;21609;49.298;6.844;2023-07-31T06:03:55;22.00;64.00
35497;DHT22;21609;49.298;6.844;2023-07-31T06:06:21;22.00;63.90
35497;DHT22;21609;49.298;6.844;2023-07-31T06:08:46;22.00;63.60
35497;DHT22;21609;49.298;6.844;2023-07-31T06:11:12;22.00;63.70
35497;DHT22;21609;49.298;6.844;2023-07-31T06:13:37;22.00;63.90
35497;DHT22;21609;49.298;6.844;2023-07-31T06:16:03;22.00;63.80
35497;DHT22;21609;49.298;6.844;2023-07-31T06:18:34;22.00;63.40
35497;DHT22;21609;49.298;6.844;2023-07-31T06:21:00;22.00;63.40
35497;DHT22;21609;49.298;6.844;2023-07-31T06:23:25;22.00;63.40
35497;DHT22;21609;49.298;6.844;2023-07-31T06:25:51;22.00;63.30
35497;DHT22;21609;49.298;6.844;2023-07-31T06:28:16;22.00;63.30
35497;DHT22;21609;49.298;6.844;2023-07-31T06:30:41;22.00;63.20
35497;DHT22;21609;49.298;6.844;2023-07-31T06:33:07;22.00;63.20
35497;DHT22;21609;49.298;6.844;2023-07-31T06:35:32;22.00;63.00
35497;DHT22;21609;49.298;6.844;2023-07-31T06:37:58;22.00;63.10
35497;DHT22;21609;49.298;6.844;2023-07-31T06:40:23;22.00;63.20
35497;DHT22;21609;49.298;6.844;2023-07-31T06:42:49;22.00;63.30
35497;DHT22;21609;49.298;6.844;2023-07-31T06:45:14;22.00;63.10
35497;DHT22;21609;49.298;6.844;2023-07-31T06:47:39;22.00;63.20
35497;DHT22;21609;49.298;6.844;2023-07-31T06:50:05;22.00;63.30
35497;DHT22;21609;49.298;6.844;2023-07-31T06:52:31;22.00;63.30
35497;DHT22;21609;49.298;6.844;2023-07-31T06:55:03;22.00;63.00
35497;DHT22;21609;49.298;6.844;2023-07-31T06:57:29;22.00;63.20
35497;DHT22;21609;49.298;6.844;2023-07-31T06:59:55;22.00;63.10
35497;DHT22;21609;49.298;6.844;2023-07-31T07:02:20;22.00;63.20
35497;DHT22;21609;49.298;6.844;2023-07-31T07:04:46;22.00;63.10
35497;DHT22;21609;49.298;6.844;2023-07-31T07:07:11;22.00;63.20
35497;DHT22;21609;49.298;6.844;2023-07-31T07:09:37;22.00;63.70
35497;DHT22;21609;49.298;6.844;2023-07-31T07:12:02;22.00;63.40
35497;DHT22;21609;49.298;6.844;2023-07-31T07:14:27;22.00;63.40
35497;DHT22;21609;49.298;6.844;2023-07-31T07:16:53;22.00;63.30
35497;DHT22;21609;49.298;6.844;2023-07-31T07:19:18;22.00;63.40
35497;DHT22;21609;49.298;6.844;2023-07-31T07:21:44;22.00;63.50
35497;DHT22;21609;49.298;6.844;2023-07-31T07:24:09;22.00;63.40
35497;DHT22;21609;49.298;6.844;2023-07-31T07:26:35;22.00;63.30
35497;DHT22;21609;49.298;6.844;2023-07-31T07:29:00;22.00;63.30
35497;DHT22;21609;49.298;6.844;2023-07-31T07:31:27;22.00;63.30
35497;DHT22;21609;49.298;6.844;2023-07-31T07:33:53;22.00;63.20
35497;DHT22;21609;49.298;6.844;2023-07-31T07:36:19;22.00;63.30
35497;DHT22;21609;49.298;6.844;2023-07-31T07:38:45;22.00;63.10
35497;DHT22;21609;49.298;6.844;2023-07-31T07:41:10;22.00;63.20
35497;DHT22;21609;49.298;6.844;2023-07-31T07:43:35;22.00;63.10
35497;DHT22;21609;49.298;6.844;2023-07-31T07:46:01;22.00;63.10
35497;DHT22;21609;49.298;6.844;2023-07-31T07:48:26;22.00;63.40
35497;DHT22;21609;49.298;6.844;2023-07-31T07:50:52;22.00;63.30
35497;DHT22;21609;49.298;6.844;2023-07-31T07:53:17;22.00;63.30
35497;DHT22;21609;49.298;6.844;2023-07-31T07:55:43;22.00;63.20
35497;DHT22;21609;49.298;6.844;2023-07-31T07:58:08;22.00;63.20
35497;DHT22;21609;49.298;6.844;2023-07-31T08:00:33;22.00;63.10
35497;DHT22;21609;49.298;6.844;2023-07-31T08:02:59;22.00;62.90
35497;DHT22;21609;49.298;6.844;2023-07-31T08:05:24;22.00;63.10
35497;DHT22;21609;49.298;6.844;2023-07-31T08:07:50;22.00;63.30
35497;DHT22;21609;49.298;6.844;2023-07-31T08:10:15;22.10;64.00
35497;DHT22;21609;49.298;6.844;2023-07-31T08:12:41;22.10;63.30
35497;DHT22;21609;49.298;6.844;2023-07-31T08:15:06;22.10;63.30
35497;DHT22;21609;49.298;6.844;2023-07-31T08:17:32;22.10;63.40
35497;DHT22;21609;49.298;6.844;2023-07-31T08:19:57;22.10;62.90
35497;DHT22;21609;49.298;6.844;2023-07-31T08:22:24;22.10;63.50
35497;DHT22;21609;49.298;6.844;2023-07-31T08:24:49;22.10;63.30
35497;DHT22;21609;49.298;6.844;2023-07-31T08:27:14;22.10;63.00
35497;DHT22;21609;49.298;6.844;2023-07-31T08:29:40;22.10;63.00
35497;DHT22;21609;49.298;6.844;2023-07-31T08:32:05;22.10;62.00
35497;DHT22;21609;49.298;6.844;2023-07-31T08:34:31;22.20;61.90
35497;DHT22;21609;49.298;6.844;2023-07-31T08:36:56;22.20;60.90
35497;DHT22;21609;49.298;6.844;2023-07-31T08:39:22;22.20;61.20
35497;DHT22;21609;49.298;6.844;2023-07-31T08:41:47;22.20;60.70
35497;DHT22;21609;49.298;6.844;2023-07-31T08:44:13;22.20;62.10
35497;DHT22;21609;49.298;6.844;2023-07-31T08:46:39;22.20;60.90
35497;DHT22;21609;49.298;6.844;2023-07-31T08:49:05;22.20;60.70
35497;DHT22;21609;49.298;6.844;2023-07-31T08:51:33;22.20;60.50
35497;DHT22;21609;49.298;6.844;2023-07-31T08:53:58;22.30;60.70
35497;DHT22;21609;49.298;6.844;2023-07-31T08:56:24;22.30;61.30
35497;DHT22;21609;49.298;6.844;2023-07-31T08:58:51;22.30;61.30
35497;DHT22;21609;49.298;6.844;2023-07-31T09:01:16;22.30;61.10
35497;DHT22;21609;49.298;6.844;2023-07-31T09:03:42;22.30;61.10
35497;DHT22;21609;49.298;6.844;2023-07-31T09:06:09;22.40;61.20
35497;DHT22;21609;49.298;6.844;2023-07-31T09:08:35;22.40;61.30
35497;DHT22;21609;49.298;6.844;2023-07-31T09:11:01;22.40;61.30
35497;DHT22;21609;49.298;6.844;2023-07-31T09:13:29;22.40;61.30
35497;DHT22;21609;49.298;6.844;2023-07-31T09:15:54;22.40;61.10
35497;DHT22;21609;49.298;6.844;2023-07-31T09:18:20;22.40;60.70
35497;DHT22;21609;49.298;6.844;2023-07-31T09:21:06;22.50;61.00
35497;DHT22;21609;49.298;6.844;2023-07-31T09:23:45;22.50;61.40
35497;DHT22;21609;49.298;6.844;2023-07-31T09:26:11;22.50;61.10
35497;DHT22;21609;49.298;6.844;2023-07-31T09:28:53;22.40;61.60
35497;DHT22;21609;49.298;6.844;2023-07-31T09:31:31;22.40;61.30
35497;DHT22;21609;49.298;6.844;2023-07-31T09:33:56;22.50;62.00
35497;DHT22;21609;49.298;6.844;2023-07-31T09:36:22;22.40;61.40
35497;DHT22;21609;49.298;6.844;2023-07-31T09:38:47;22.50;61.20
35497;DHT22;21609;49.298;6.844;2023-07-31T09:41:13;22.50;61.20
35497;DHT22;21609;49.298;6.844;2023-07-31T09:43:38;22.50;61.10
35497;DHT22;21609;49.298;6.844;2023-07-31T09:46:04;22.50;60.70
35497;DHT22;21609;49.298;6.844;2023-07-31T09:48:38;22.50;61.20
35497;DHT22;21609;49.298;6.844;2023-07-31T09:51:04;22.50;61.10
35497;DHT22;21609;49.298;6.844;2023-07-31T09:53:29;22.50;61.00
35497;DHT22;21609;49.298;6.844;2023-07-31T09:55:56;22.50;60.10
35497;DHT22;21609;49.298;6.844;2023-07-31T09:58:23;22.50;60.90
35497;DHT22;21609;49.298;6.844;2023-07-31T10:00:48;22.50;61.10
35497;DHT22;21609;49.298;6.844;2023-07-31T10:03:14;22.50;61.30
35497;DHT22;21609;49.298;6.844;2023-07-31T10:05:42;22.50;61.20
35497;DHT22;21609;49.298;6.844;2023-07-31T10:08:09;22.50;60.80
35497;DHT22;21609;49.298;6.844;2023-07-31T10:10:35;22.50;60.60
35497;DHT22;21609;49.298;6.844;2023-07-31T10:13:01;22.50;60.50
35497;DHT22;21609;49.298;6.844;2023-07-31T10:15:27;22.50;60.30
35497;DHT22;21609;49.298;6.844;2023-07-31T10:17:52;22.50;60.20
35497;DHT22;21609;49.298;6.844;2023-07-31T10:20:19;22.50;60.80
35497;DHT22;21609;49.298;6.844;2023-07-31T10:22:45;22.50;59.40
35497;DHT22;21609;49.298;6.844;2023-07-31T10:25:11;22.50;60.70
35497;DHT22;21609;49.298;6.844;2023-07-31T10:27:38;22.50;61.60
35497;DHT22;21609;49.298;6.844;2023-07-31T10:30:04;22.50;62.20
35497;DHT22;21609;49.298;6.844;2023-07-31T10:32:30;22.50;60.90
35497;DHT22;21609;49.298;6.844;2023-07-31T10:34:56;22.60;59.50
35497;DHT22;21609;49.298;6.844;2023-07-31T10:40:02;22.60;60.10
35497;DHT22;21609;49.298;6.844;2023-07-31T10:42:47;22.60;60.60
35497;DHT22;21609;49.298;6.844;2023-07-31T10:45:13;22.60;60.30
35497;DHT22;21609;49.298;6.844;2023-07-31T10:47:42;22.60;60.10
35497;DHT22;21609;49.298;6.844;2023-07-31T10:50:18;22.60;59.50
35497;DHT22;21609;49.298;6.844;2023-07-31T10:52:46;22.60;59.50
35497;DHT22;21609;49.298;6.844;2023-07-31T10:57:49;22.60;59.60
35497;DHT22;21609;49.298;6.844;2023-07-31T11:00:27;22.60;59.20
35497;DHT22;21609;49.298;6.844;2023-07-31T11:03:00;22.60;59.40
35497;DHT22;21609;49.298;6.844;2023-07-31T11:08:20;22.60;59.60
35497;DHT22;21609;49.298;6.844;2023-07-31T11:10:47;22.60;59.40
35497;DHT22;21609;49.298;6.844;2023-07-31T11:13:13;22.60;59.50
35497;DHT22;21609;49.298;6.844;2023-07-31T11:15:39;22.60;59.60
35497;DHT22;21609;49.298;6.844;2023-07-31T11:18:04;22.60;59.50
35497;DHT22;21609;49.298;6.844;2023-07-31T11:20:36;22.60;59.30
35497;DHT22;21609;49.298;6.844;2023-07-31T11:23:02;22.70;59.40
35497;DHT22;21609;49.298;6.844;2023-07-31T11:25:28;22.70;59.70
35497;DHT22;21609;49.298;6.844;2023-07-31T11:27:54;22.60;59.70
35497;DHT22;21609;49.298;6.844;2023-07-31T11:30:21;22.60;59.70
35497;DHT22;21609;49.298;6.844;2023-07-31T11:32:47;22.60;59.40
35497;DHT22;21609;49.298;6.844;2023-07-31T11:35:12;22.60;59.80
35497;DHT22;21609;49.298;6.844;2023-07-31T11:37:38;22.60;59.70
35497;DHT22;21609;49.298;6.844;2023-07-31T11:40:04;22.70;59.80
35497;DHT22;21609;49.298;6.844;2023-07-31T11:42:30;22.60;59.80
35497;DHT22;21609;49.298;6.844;2023-07-31T11:44:55;22.60;59.90
35497;DHT22;21609;49.298;6.844;2023-07-31T11:47:21;22.60;59.50
35497;DHT22;21609;49.298;6.844;2023-07-31T11:49:46;22.70;59.60
35497;DHT22;21609;49.298;6.844;2023-07-31T11:52:13;22.70;59.50
35497;DHT22;21609;49.298;6.844;2023-07-31T11:54:39;22.60;59.50
35497;DHT22;21609;49.298;6.844;2023-07-31T11:57:05;22.60;59.60
35497;DHT22;21609;49.298;6.844;2023-07-31T11:59:31;22.60;59.30
35497;DHT22;21609;49.298;6.844;2023-07-31T12:01:56;22.70;59.80
35497;DHT22;21609;49.298;6.844;2023-07-31T12:04:23;22.60;59.60
35497;DHT22;21609;49.298;6.844;2023-07-31T12:06:48;22.70;59.30
35497;DHT22;21609;49.298;6.844;2023-07-31T12:09:15;22.70;59.80
35497;DHT22;21609;49.298;6.844;2023-07-31T12:11:44;22.60;59.90
35497;DHT22;21609;49.298;6.844;2023-07-31T12:14:22;22.60;60.30
35497;DHT22;21609;49.298;6.844;2023-07-31T12:16:52;22.60;59.90
35497;DHT22;21609;49.298;6.844;2023-07-31T12:19:18;22.60;59.50
35497;DHT22;21609;49.298;6.844;2023-07-31T12:21:44;22.60;60.50
35497;DHT22;21609;49.298;6.844;2023-07-31T12:24:10;22.60;61.70
35497;DHT22;21609;49.298;6.844;2023-07-31T12:26:35;22.60;60.20
35497;DHT22;21609;49.298;6.844;2023-07-31T12:29:00;22.60;60.60
35497;DHT22;21609;49.298;6.844;2023-07-31T12:31:27;22.60;61.60
35497;DHT22;21609;49.298;6.844;2023-07-31T12:33:53;22.60;62.00
35497;DHT22;21609;49.298;6.844;2023-07-31T12:38:44;22.60;59.60
35497;DHT22;21609;49.298;6.844;2023-07-31T12:41:09;22.60;59.70
35497;DHT22;21609;49.298;6.844;2023-07-31T12:43:36;22.70;59.20
35497;DHT22;21609;49.298;6.844;2023-07-31T12:46:02;22.60;60.80
35497;DHT22;21609;49.298;6.844;2023-07-31T12:48:28;22.60;62.20
35497;DHT22;21609;49.298;6.844;2023-07-31T12:50:53;22.60;62.40
35497;DHT22;21609;49.298;6.844;2023-07-31T12:53:19;22.60;62.40
35497;DHT22;21609;49.298;6.844;2023-07-31T12:55:44;22.60;62.40
35497;DHT22;21609;49.298;6.844;2023-07-31T12:58:10;22.60;61.40
35497;DHT22;21609;49.298;6.844;2023-07-31T13:00:35;22.60;62.40
35497;DHT22;21609;49.298;6.844;2023-07-31T13:03:01;22.60;61.90
35497;DHT22;21609;49.298;6.844;2023-07-31T13:05:27;22.60;61.80
35497;DHT22;21609;49.298;6.844;2023-07-31T13:07:52;22.60;60.50
35497;DHT22;21609;49.298;6.844;2023-07-31T13:10:18;22.60;59.50
35497;DHT22;21609;49.298;6.844;2023-07-31T13:12:43;22.60;59.70
35497;DHT22;21609;49.298;6.844;2023-07-31T13:15:09;22.60;59.40
35497;DHT22;21609;49.298;6.844;2023-07-31T13:17:35;22.70;59.50
35497;DHT22;21609;49.298;6.844;2023-07-31T13:20:00;22.70;59.30
35497;DHT22;21609;49.298;6.844;2023-07-31T13:22:26;22.70;59.20
35497;DHT22;21609;49.298;6.844;2023-07-31T13:24:51;22.80;58.90
35497;DHT22;21609;49.298;6.844;2023-07-31T13:27:17;22.80;58.90
35497;DHT22;21609;49.298;6.844;2023-07-31T13:29:44;22.80;59.00
35497;DHT22;21609;49.298;6.844;2023-07-31T13:32:09;22.80;58.90
35497;DHT22;21609;49.298;6.844;2023-07-31T13:34:35;22.80;58.80
35497;DHT22;21609;49.298;6.844;2023-07-31T13:37:00;22.80;58.70
35497;DHT22;21609;49.298;6.844;2023-07-31T13:39:26;22.90;58.90
35497;DHT22;21609;49.298;6.844;2023-07-31T13:41:51;22.90;58.90
35497;DHT22;21609;49.298;6.844;2023-07-31T13:44:17;22.90;58.70
35497;DHT22;21609;49.298;6.844;2023-07-31T13:46:42;22.90;58.70
35497;DHT22;21609;49.298;6.844;2023-07-31T13:49:08;22.90;58.70
35497;DHT22;21609;49.298;6.844;2023-07-31T13:51:33;22.90;58.70
35497;DHT22;21609;49.298;6.844;2023-07-31T13:53:59;22.90;58.60
35497;DHT22;21609;49.298;6.844;2023-07-31T13:56:24;22.90;58.90
35497;DHT22;21609;49.298;6.844;2023-07-31T13:58:50;22.90;58.70
35497;DHT22;21609;49.298;6.844;2023-07-31T14:01:15;22.90;58.80
35497;DHT22;21609;49.298;6.844;2023-07-31T14:03:40;22.90;58.90
35497;DHT22;21609;49.298;6.844;2023-07-31T14:06:06;22.90;58.90
35497;DHT22;21609;49.298;6.844;2023-07-31T14:08:31;22.90;59.10
35497;DHT22;21609;49.298;6.844;2023-07-31T14:10:57;22.90;58.80
35497;DHT22;21609;49.298;6.844;2023-07-31T14:13:22;22.90;59.20
35497;DHT22;21609;49.298;6.844;2023-07-31T14:15:48;22.90;59.00
35497;DHT22;21609;49.298;6.844;2023-07-31T14:18:13;22.90;59.00
35497;DHT22;21609;49.298;6.844;2023-07-31T14:20:38;22.90;58.90
35497;DHT22;21609;49.298;6.844;2023-07-31T14:23:05;22.90;58.70
35497;DHT22;21609;49.298;6.844;2023-07-31T14:25:30;22.90;58.90
35497;DHT22;21609;49.298;6.844;2023-07-31T14:27:56;22.90;58.80
35497;DHT22;21609;49.298;6.844;2023-07-31T14:30:22;22.90;58.60
35497;DHT22;21609;49.298;6.844;2023-07-31T14:32:48;22.90;58.60
35497;DHT22;21609;49.298;6.844;2023-07-31T14:35:13;22.90;58.70
35497;DHT22;21609;49.298;6.844;2023-07-31T14:37:40;22.90;58.70
35497;DHT22;21609;49.298;6.844;2023-07-31T14:40:06;22.90;58.70
35497;DHT22;21609;49.298;6.844;2023-07-31T14:42:32;22.90;58.50
35497;DHT22;21609;49.298;6.844;2023-07-31T14:44:57;23.00;58.60
35497;DHT22;21609;49.298;6.844;2023-07-31T14:47:22;22.90;58.80
35497;DHT22;21609;49.298;6.844;2023-07-31T14:49:48;22.90;58.40
35497;DHT22;21609;49.298;6.844;2023-07-31T14:52:14;22.90;58.50
35497;DHT22;21609;49.298;6.844;2023-07-31T14:54:39;22.90;58.80
35497;DHT22;21609;49.298;6.844;2023-07-31T14:57:05;22.90;59.10
35497;DHT22;21609;49.298;6.844;2023-07-31T14:59:30;22.90;58.70
35497;DHT22;21609;49.298;6.844;2023-07-31T15:01:56;22.90;58.70
35497;DHT22;21609;49.298;6.844;2023-07-31T15:04:21;22.90;58.50
35497;DHT22;21609;49.298;6.844;2023-07-31T15:06:47;22.90;58.70
35497;DHT22;21609;49.298;6.844;2023-07-31T15:09:12;22.90;59.00
35497;DHT22;21609;49.298;6.844;2023-07-31T15:11:38;22.90;59.50
35497;DHT22;21609;49.298;6.844;2023-07-31T15:14:03;22.90;59.60
35497;DHT22;21609;49.298;6.844;2023-07-31T15:16:29;22.90;59.90
35497;DHT22;21609;49.298;6.844;2023-07-31T15:18:56;22.90;59.50
35497;DHT22;21609;49.298;6.844;2023-07-31T15:21:22;22.90;59.40
35497;DHT22;21609;49.298;6.844;2023-07-31T15:23:47;22.90;59.10
35497;DHT22;21609;49.298;6.844;2023-07-31T15:26:13;22.90;60.00
35497;DHT22;21609;49.298;6.844;2023-07-31T15:28:38;22.90;59.90
35497;DHT22;21609;49.298;6.844;2023-07-31T15:31:04;22.80;59.30
35497;DHT22;21609;49.298;6.844;2023-07-31T15:33:29;22.90;59.30
35497;DHT22;21609;49.298;6.844;2023-07-31T15:35:55;22.80;59.40
35497;DHT22;21609;49.298;6.844;2023-07-31T15:38:21;22.80;59.50